ENY4140 KDFW-KMOB
Flight info
| Callsign | ENY4140 |
|---|---|
| Flight time | 1h 4m |
| Altitude | 35000 |
| Route | MRSSH3 ZALEA DOOMS SJI |
| Aircraft | E170/M-SDE3GILORVW/S |
Departure
| Time | 2026-05-04 20:11 |
|---|---|
| Airport | Dallas Fort Worth International Airport (KDFW) |
Arrival
| Time | 2026-05-04 21:15 |
|---|---|
| Airport | Mobile Regional Airport (KMOB) |
| Time | Latitude | Longitude | Altitude | Speed | Heading |
|---|---|---|---|---|---|
| 2026-05-04 19:49 | 32.90728 | -97.04621 | 594 ft | 0 kts | 115° |
| 2026-05-04 20:01 | 32.90736 | -97.04643 | 594 ft | 2 kts | 115° |
| 2026-05-04 20:01 | 32.90740 | -97.04666 | 594 ft | 4 kts | 54° |
| 2026-05-04 20:01 | 32.90718 | -97.04671 | 594 ft | 4 kts | 0° |
| 2026-05-04 20:02 | 32.90708 | -97.04671 | 594 ft | 2 kts | 0° |
| 2026-05-04 20:05 | 32.90718 | -97.04671 | 594 ft | 4 kts | 2° |
| 2026-05-04 20:05 | 32.90763 | -97.04654 | 594 ft | 10 kts | 35° |
| 2026-05-04 20:05 | 32.90823 | -97.04596 | 594 ft | 12 kts | 0° |
| 2026-05-04 20:06 | 32.90914 | -97.04595 | 596 ft | 14 kts | 1° |
| 2026-05-04 20:06 | 32.91007 | -97.04587 | 597 ft | 6 kts | 36° |
| 2026-05-04 20:06 | 32.91011 | -97.04537 | 596 ft | 9 kts | 90° |
| 2026-05-04 20:06 | 32.91011 | -97.04437 | 599 ft | 14 kts | 91° |
| 2026-05-04 20:07 | 32.91009 | -97.04318 | 607 ft | 15 kts | 90° |
| 2026-05-04 20:07 | 32.91009 | -97.04177 | 607 ft | 20 kts | 91° |
| 2026-05-04 20:07 | 32.91009 | -97.03985 | 614 ft | 26 kts | 91° |
| 2026-05-04 20:07 | 32.91008 | -97.03752 | 598 ft | 32 kts | 90° |
| 2026-05-04 20:08 | 32.91007 | -97.03473 | 581 ft | 28 kts | 91° |
| 2026-05-04 20:08 | 32.91007 | -97.03270 | 578 ft | 19 kts | 90° |
| 2026-05-04 20:08 | 32.91033 | -97.03186 | 576 ft | 9 kts | 358° |
| 2026-05-04 20:08 | 32.91105 | -97.03186 | 578 ft | 12 kts | 360° |
| 2026-05-04 20:09 | 32.91194 | -97.03185 | 578 ft | 14 kts | 0° |
| 2026-05-04 20:09 | 32.91297 | -97.03185 | 578 ft | 16 kts | 0° |
| 2026-05-04 20:09 | 32.91428 | -97.03184 | 578 ft | 21 kts | 360° |
| 2026-05-04 20:09 | 32.91554 | -97.03164 | 574 ft | 13 kts | 59° |
| 2026-05-04 20:10 | 32.91560 | -97.03049 | 576 ft | 15 kts | 90° |
| 2026-05-04 20:10 | 32.91510 | -97.02985 | 576 ft | 11 kts | 182° |
| 2026-05-04 20:10 | 32.91392 | -97.02987 | 575 ft | 38 kts | 180° |
| 2026-05-04 20:10 | 32.90840 | -97.02991 | 576 ft | 119 kts | 180° |
| 2026-05-04 20:11 | 32.89894 | -97.02991 | 1123 ft | 145 kts | 180° |
| 2026-05-04 20:11 | 32.88791 | -97.02975 | 1844 ft | 172 kts | 181° |
| 2026-05-04 20:11 | 32.87559 | -97.02981 | 2724 ft | 183 kts | 181° |
| 2026-05-04 20:11 | 32.86269 | -97.02981 | 3797 ft | 192 kts | 182° |
| 2026-05-04 20:12 | 32.84841 | -97.02978 | 4636 ft | 222 kts | 185° |
| 2026-05-04 20:12 | 32.83194 | -97.02983 | 5473 ft | 250 kts | 186° |
| 2026-05-04 20:12 | 32.81385 | -97.02987 | 6504 ft | 268 kts | 185° |
| 2026-05-04 20:12 | 32.79470 | -97.02989 | 7608 ft | 281 kts | 185° |
| 2026-05-04 20:13 | 32.77498 | -97.02983 | 8853 ft | 285 kts | 185° |
| 2026-05-04 20:13 | 32.75510 | -97.02966 | 9888 ft | 285 kts | 185° |
| 2026-05-04 20:13 | 32.73490 | -97.02913 | 10419 ft | 302 kts | 179° |
| 2026-05-04 20:13 | 32.71412 | -97.02105 | 10812 ft | 330 kts | 153° |
| 2026-05-04 20:14 | 32.69716 | -97.00175 | 11419 ft | 348 kts | 127° |
| 2026-05-04 20:14 | 32.68821 | -96.97481 | 12159 ft | 358 kts | 99° |
| 2026-05-04 20:14 | 32.68835 | -96.94526 | 12981 ft | 361 kts | 84° |
| 2026-05-04 20:14 | 32.68988 | -96.91529 | 13760 ft | 367 kts | 87° |
| 2026-05-04 20:15 | 32.69033 | -96.88477 | 14468 ft | 373 kts | 88° |
| 2026-05-04 20:15 | 32.69049 | -96.85377 | 15201 ft | 378 kts | 88° |
| 2026-05-04 20:15 | 32.69077 | -96.82228 | 15936 ft | 384 kts | 87° |
| 2026-05-04 20:15 | 32.69123 | -96.79036 | 16613 ft | 390 kts | 86° |
| 2026-05-04 20:16 | 32.69173 | -96.75800 | 17279 ft | 395 kts | 86° |
| 2026-05-04 20:16 | 32.69218 | -96.72523 | 17948 ft | 400 kts | 86° |
| 2026-05-04 20:16 | 32.69260 | -96.69200 | 18577 ft | 405 kts | 86° |
| 2026-05-04 20:16 | 32.69308 | -96.65841 | 19199 ft | 409 kts | 86° |
| 2026-05-04 20:17 | 32.69355 | -96.62446 | 19824 ft | 414 kts | 86° |
| 2026-05-04 20:17 | 32.69406 | -96.59002 | 20476 ft | 419 kts | 86° |
| 2026-05-04 20:17 | 32.69449 | -96.55530 | 21156 ft | 423 kts | 86° |
| 2026-05-04 20:17 | 32.69492 | -96.52030 | 21775 ft | 428 kts | 86° |
| 2026-05-04 20:18 | 32.69540 | -96.48425 | 22399 ft | 433 kts | 86° |
| 2026-05-04 20:18 | 32.69580 | -96.44885 | 23057 ft | 435 kts | 86° |
| 2026-05-04 20:18 | 32.69616 | -96.41229 | 23645 ft | 439 kts | 86° |
| 2026-05-04 20:18 | 32.69654 | -96.37635 | 24069 ft | 445 kts | 86° |
| 2026-05-04 20:19 | 32.69692 | -96.33944 | 24493 ft | 450 kts | 85° |
| 2026-05-04 20:19 | 32.69644 | -96.30140 | 24921 ft | 458 kts | 91° |
| 2026-05-04 20:19 | 32.69357 | -96.26352 | 25356 ft | 464 kts | 92° |
| 2026-05-04 20:19 | 32.69066 | -96.22519 | 25768 ft | 469 kts | 92° |
| 2026-05-04 20:20 | 32.68788 | -96.18642 | 26188 ft | 474 kts | 91° |
| 2026-05-04 20:20 | 32.68508 | -96.14728 | 26583 ft | 479 kts | 91° |
| 2026-05-04 20:20 | 32.68235 | -96.10772 | 26981 ft | 483 kts | 91° |
| 2026-05-04 20:20 | 32.67960 | -96.06770 | 27363 ft | 489 kts | 91° |
| 2026-05-04 20:21 | 32.67683 | -96.02795 | 27734 ft | 493 kts | 90° |
| 2026-05-04 20:21 | 32.67405 | -95.98718 | 28102 ft | 498 kts | 90° |
| 2026-05-04 20:21 | 32.66842 | -95.90457 | 28828 ft | 506 kts | 90° |
| 2026-05-04 20:22 | 32.66554 | -95.86272 | 29154 ft | 511 kts | 90° |
| 2026-05-04 20:22 | 32.66265 | -95.82054 | 29492 ft | 515 kts | 90° |
| 2026-05-04 20:22 | 32.65971 | -95.77802 | 29844 ft | 519 kts | 90° |
| 2026-05-04 20:22 | 32.65666 | -95.73519 | 30112 ft | 523 kts | 90° |
| 2026-05-04 20:23 | 32.65349 | -95.69208 | 30421 ft | 526 kts | 90° |
| 2026-05-04 20:23 | 32.65040 | -95.64879 | 30724 ft | 528 kts | 90° |
| 2026-05-04 20:23 | 32.64728 | -95.60530 | 31012 ft | 531 kts | 90° |
| 2026-05-04 20:23 | 32.64406 | -95.56158 | 31288 ft | 533 kts | 90° |
| 2026-05-04 20:24 | 32.64092 | -95.51760 | 31560 ft | 536 kts | 90° |
| 2026-05-04 20:24 | 32.63775 | -95.47346 | 31826 ft | 538 kts | 90° |
| 2026-05-04 20:24 | 32.63455 | -95.42918 | 32079 ft | 541 kts | 90° |
| 2026-05-04 20:24 | 32.63139 | -95.38468 | 32392 ft | 542 kts | 90° |
| 2026-05-04 20:25 | 32.62824 | -95.34016 | 32751 ft | 542 kts | 90° |
| 2026-05-04 20:25 | 32.62491 | -95.29568 | 33139 ft | 541 kts | 90° |
| 2026-05-04 20:25 | 32.62153 | -95.25118 | 33460 ft | 541 kts | 90° |
| 2026-05-04 20:25 | 32.61817 | -95.20668 | 33779 ft | 542 kts | 90° |
| 2026-05-04 20:26 | 32.61486 | -95.16217 | 34087 ft | 542 kts | 89° |
| 2026-05-04 20:26 | 32.61169 | -95.11834 | 34373 ft | 541 kts | 89° |
| 2026-05-04 20:26 | 32.60841 | -95.07391 | 34658 ft | 541 kts | 89° |
| 2026-05-04 20:26 | 32.60506 | -95.02888 | 34968 ft | 539 kts | 90° |
| 2026-05-04 20:27 | 32.59824 | -94.93990 | 35064 ft | 553 kts | 90° |
| 2026-05-04 20:27 | 32.59476 | -94.89414 | 34963 ft | 560 kts | 90° |
| 2026-05-04 20:27 | 32.59114 | -94.84812 | 34945 ft | 561 kts | 90° |
| 2026-05-04 20:28 | 32.58103 | -94.75605 | 34971 ft | 569 kts | 101° |
| 2026-05-04 20:28 | 32.55596 | -94.66653 | 34930 ft | 573 kts | 108° |
| 2026-05-04 20:29 | 32.52975 | -94.57741 | 34932 ft | 572 kts | 107° |
| 2026-05-04 20:29 | 32.50434 | -94.48828 | 34949 ft | 571 kts | 106° |
| 2026-05-04 20:30 | 32.47900 | -94.39912 | 34951 ft | 572 kts | 106° |
| 2026-05-04 20:30 | 32.45361 | -94.30994 | 34951 ft | 571 kts | 106° |
| 2026-05-04 20:31 | 32.42819 | -94.22082 | 34960 ft | 571 kts | 106° |
| 2026-05-04 20:31 | 32.40279 | -94.13227 | 34958 ft | 572 kts | 106° |
| 2026-05-04 20:32 | 32.37714 | -94.04316 | 34980 ft | 572 kts | 106° |
| 2026-05-04 20:32 | 32.35148 | -93.95416 | 34983 ft | 572 kts | 106° |
| 2026-05-04 20:33 | 32.32571 | -93.86505 | 34986 ft | 572 kts | 106° |
| 2026-05-04 20:33 | 32.29989 | -93.77606 | 34971 ft | 573 kts | 106° |
| 2026-05-04 20:34 | 32.27405 | -93.68719 | 34988 ft | 572 kts | 106° |
| 2026-05-04 20:34 | 32.24810 | -93.59830 | 34988 ft | 572 kts | 106° |
| 2026-05-04 20:35 | 32.22213 | -93.50959 | 34995 ft | 572 kts | 107° |
| 2026-05-04 20:35 | 32.20292 | -93.41917 | 35013 ft | 565 kts | 93° |
| 2026-05-04 20:36 | 32.19209 | -93.32733 | 34994 ft | 564 kts | 93° |
| 2026-05-04 20:36 | 32.18026 | -93.23561 | 34999 ft | 565 kts | 94° |
| 2026-05-04 20:37 | 32.16795 | -93.14394 | 35005 ft | 565 kts | 94° |
| 2026-05-04 20:37 | 32.15557 | -93.05231 | 35014 ft | 565 kts | 94° |
| 2026-05-04 20:38 | 32.14321 | -92.96129 | 35005 ft | 565 kts | 94° |
| 2026-05-04 20:38 | 32.13070 | -92.86973 | 35009 ft | 565 kts | 94° |
| 2026-05-04 20:39 | 32.11812 | -92.77818 | 35008 ft | 565 kts | 94° |
| 2026-05-04 20:39 | 32.10547 | -92.68664 | 35014 ft | 565 kts | 94° |
| 2026-05-04 20:40 | 32.09275 | -92.59505 | 35016 ft | 566 kts | 94° |
| 2026-05-04 20:40 | 32.07997 | -92.50352 | 35016 ft | 566 kts | 94° |
| 2026-05-04 20:41 | 32.06713 | -92.41203 | 35018 ft | 566 kts | 94° |
| 2026-05-04 20:41 | 32.05422 | -92.32053 | 35021 ft | 566 kts | 94° |
| 2026-05-04 20:42 | 32.04125 | -92.22923 | 35009 ft | 564 kts | 94° |
| 2026-05-04 20:42 | 32.02832 | -92.13803 | 35021 ft | 564 kts | 94° |
| 2026-05-04 20:43 | 32.01520 | -92.04682 | 35019 ft | 565 kts | 94° |
| 2026-05-04 20:43 | 32.00201 | -91.95562 | 35023 ft | 565 kts | 94° |
| 2026-05-04 20:44 | 31.98879 | -91.86443 | 35013 ft | 564 kts | 94° |
| 2026-05-04 20:44 | 31.97777 | -91.78868 | 35035 ft | 565 kts | 94° |
| 2026-05-04 20:45 | 31.96442 | -91.69754 | 35033 ft | 565 kts | 94° |
| 2026-05-04 20:45 | 31.94884 | -91.59170 | 35039 ft | 565 kts | 94° |
| 2026-05-04 20:46 | 31.93755 | -91.51536 | 35052 ft | 565 kts | 94° |
| 2026-05-04 20:46 | 31.92405 | -91.42447 | 35045 ft | 563 kts | 94° |
| 2026-05-04 20:47 | 31.91048 | -91.33354 | 35043 ft | 564 kts | 94° |
| 2026-05-04 20:47 | 31.89694 | -91.24335 | 35044 ft | 564 kts | 94° |
| 2026-05-04 20:48 | 31.88066 | -91.15296 | 35058 ft | 571 kts | 105° |
| 2026-05-04 20:48 | 31.84706 | -91.06773 | 35034 ft | 576 kts | 115° |
| 2026-05-04 20:49 | 31.81189 | -90.98335 | 35037 ft | 574 kts | 113° |
| 2026-05-04 20:49 | 31.77779 | -90.89854 | 35079 ft | 573 kts | 112° |
| 2026-05-04 20:50 | 31.74384 | -90.81370 | 35047 ft | 574 kts | 112° |
| 2026-05-04 20:50 | 31.70986 | -90.72896 | 35036 ft | 573 kts | 112° |
| 2026-05-04 20:51 | 31.67612 | -90.64490 | 35049 ft | 573 kts | 112° |
| 2026-05-04 20:51 | 31.64215 | -90.56027 | 35042 ft | 573 kts | 112° |
| 2026-05-04 20:52 | 31.60810 | -90.47584 | 35045 ft | 573 kts | 112° |
| 2026-05-04 20:52 | 31.57393 | -90.39137 | 35039 ft | 573 kts | 112° |
| 2026-05-04 20:53 | 31.53978 | -90.30717 | 35045 ft | 571 kts | 112° |
| 2026-05-04 20:53 | 31.50575 | -90.22306 | 35076 ft | 570 kts | 113° |
| 2026-05-04 20:54 | 31.47157 | -90.13926 | 35045 ft | 571 kts | 113° |
| 2026-05-04 20:54 | 31.43729 | -90.05543 | 35052 ft | 571 kts | 113° |
| 2026-05-04 20:55 | 31.40294 | -89.97160 | 35052 ft | 569 kts | 113° |
| 2026-05-04 20:55 | 31.36871 | -89.88835 | 35059 ft | 568 kts | 113° |
| 2026-05-04 20:56 | 31.35171 | -89.84697 | 34646 ft | 560 kts | 113° |
| 2026-05-04 20:56 | 31.33529 | -89.80702 | 34178 ft | 548 kts | 113° |
| 2026-05-04 20:56 | 31.31878 | -89.76685 | 33330 ft | 545 kts | 113° |
| 2026-05-04 20:56 | 31.30243 | -89.72717 | 32584 ft | 539 kts | 114° |
| 2026-05-04 20:57 | 31.28616 | -89.68796 | 31878 ft | 533 kts | 114° |
| 2026-05-04 20:57 | 31.27005 | -89.64920 | 31159 ft | 527 kts | 114° |
| 2026-05-04 20:57 | 31.25410 | -89.61092 | 30472 ft | 521 kts | 115° |
| 2026-05-04 20:57 | 31.23830 | -89.57311 | 29705 ft | 514 kts | 115° |
| 2026-05-04 20:58 | 31.22281 | -89.53599 | 29107 ft | 504 kts | 115° |
| 2026-05-04 20:58 | 31.20761 | -89.49949 | 28455 ft | 496 kts | 115° |
| 2026-05-04 20:58 | 31.19259 | -89.46342 | 27776 ft | 492 kts | 115° |
| 2026-05-04 20:58 | 31.17769 | -89.42761 | 27148 ft | 489 kts | 115° |
| 2026-05-04 20:59 | 31.16287 | -89.39203 | 26494 ft | 485 kts | 115° |
| 2026-05-04 20:59 | 31.14818 | -89.35683 | 25862 ft | 479 kts | 115° |
| 2026-05-04 20:59 | 31.13367 | -89.32207 | 25225 ft | 473 kts | 116° |
| 2026-05-04 20:59 | 31.11936 | -89.28782 | 24601 ft | 466 kts | 116° |
| 2026-05-04 21:00 | 31.10527 | -89.25410 | 23977 ft | 459 kts | 116° |
| 2026-05-04 21:00 | 31.09139 | -89.22094 | 23339 ft | 451 kts | 116° |
| 2026-05-04 21:00 | 31.07777 | -89.18842 | 22788 ft | 441 kts | 116° |
| 2026-05-04 21:00 | 31.06441 | -89.15653 | 22188 ft | 435 kts | 116° |
| 2026-05-04 21:01 | 31.05118 | -89.12502 | 21637 ft | 431 kts | 116° |
| 2026-05-04 21:01 | 31.03804 | -89.09375 | 21054 ft | 428 kts | 117° |
| 2026-05-04 21:01 | 31.02501 | -89.06276 | 20480 ft | 425 kts | 117° |
| 2026-05-04 21:01 | 31.01205 | -89.03200 | 19927 ft | 421 kts | 117° |
| 2026-05-04 21:02 | 30.99922 | -89.00154 | 19367 ft | 416 kts | 117° |
| 2026-05-04 21:02 | 30.98653 | -88.97143 | 18813 ft | 412 kts | 117° |
| 2026-05-04 21:02 | 30.97400 | -88.94165 | 18263 ft | 407 kts | 117° |
| 2026-05-04 21:02 | 30.96162 | -88.91227 | 17741 ft | 400 kts | 117° |
| 2026-05-04 21:03 | 30.94938 | -88.88331 | 17085 ft | 397 kts | 117° |
| 2026-05-04 21:03 | 30.93748 | -88.85516 | 16619 ft | 389 kts | 117° |
| 2026-05-04 21:03 | 30.92563 | -88.82709 | 16093 ft | 383 kts | 117° |
| 2026-05-04 21:03 | 30.91399 | -88.79950 | 15591 ft | 377 kts | 117° |
| 2026-05-04 21:04 | 30.90257 | -88.77225 | 15098 ft | 372 kts | 117° |
| 2026-05-04 21:04 | 30.89120 | -88.74538 | 14607 ft | 368 kts | 118° |
| 2026-05-04 21:04 | 30.87989 | -88.71886 | 14125 ft | 364 kts | 118° |
| 2026-05-04 21:04 | 30.86870 | -88.69266 | 13620 ft | 359 kts | 118° |
| 2026-05-04 21:05 | 30.85769 | -88.66683 | 13171 ft | 354 kts | 118° |
| 2026-05-04 21:05 | 30.84689 | -88.64143 | 12700 ft | 346 kts | 119° |
| 2026-05-04 21:05 | 30.83283 | -88.61957 | 12199 ft | 333 kts | 141° |
| 2026-05-04 21:05 | 30.81470 | -88.60353 | 11777 ft | 323 kts | 147° |
| 2026-05-04 21:06 | 30.79657 | -88.58857 | 11367 ft | 316 kts | 147° |
| 2026-05-04 21:06 | 30.77882 | -88.57385 | 10965 ft | 310 kts | 147° |
| 2026-05-04 21:06 | 30.76139 | -88.55945 | 10574 ft | 305 kts | 147° |
| 2026-05-04 21:06 | 30.74428 | -88.54523 | 10197 ft | 300 kts | 147° |
| 2026-05-04 21:07 | 30.72710 | -88.53187 | 9797 ft | 293 kts | 157° |
| 2026-05-04 21:07 | 30.70775 | -88.52658 | 9371 ft | 282 kts | 184° |
| 2026-05-04 21:07 | 30.68881 | -88.53075 | 9025 ft | 276 kts | 197° |
| 2026-05-04 21:07 | 30.67027 | -88.53662 | 8692 ft | 276 kts | 199° |
| 2026-05-04 21:08 | 30.65355 | -88.54694 | 8314 ft | 273 kts | 224° |
| 2026-05-04 21:08 | 30.64333 | -88.56502 | 7954 ft | 271 kts | 251° |
| 2026-05-04 21:08 | 30.64204 | -88.58667 | 7602 ft | 274 kts | 279° |
| 2026-05-04 21:08 | 30.65018 | -88.60662 | 7259 ft | 279 kts | 308° |
| 2026-05-04 21:09 | 30.66590 | -88.61987 | 6917 ft | 285 kts | 335° |
| 2026-05-04 21:09 | 30.68559 | -88.62329 | 6555 ft | 291 kts | 4° |
| 2026-05-04 21:09 | 30.70458 | -88.61579 | 6176 ft | 290 kts | 33° |
| 2026-05-04 21:09 | 30.71828 | -88.59924 | 5888 ft | 282 kts | 62° |
| 2026-05-04 21:10 | 30.72643 | -88.57887 | 5821 ft | 277 kts | 68° |
| 2026-05-04 21:10 | 30.73431 | -88.55822 | 5726 ft | 282 kts | 67° |
| 2026-05-04 21:10 | 30.74217 | -88.53726 | 5614 ft | 283 kts | 71° |
| 2026-05-04 21:10 | 30.74745 | -88.51535 | 5486 ft | 281 kts | 78° |
| 2026-05-04 21:11 | 30.75214 | -88.49332 | 5358 ft | 281 kts | 77° |
| 2026-05-04 21:11 | 30.75698 | -88.47140 | 5228 ft | 279 kts | 77° |
| 2026-05-04 21:11 | 30.76169 | -88.44964 | 5100 ft | 277 kts | 77° |
| 2026-05-04 21:11 | 30.76638 | -88.42785 | 4919 ft | 278 kts | 77° |
| 2026-05-04 21:12 | 30.77095 | -88.40637 | 4725 ft | 276 kts | 77° |
| 2026-05-04 21:12 | 30.77561 | -88.38454 | 4527 ft | 274 kts | 78° |
| 2026-05-04 21:12 | 30.78039 | -88.36308 | 4334 ft | 272 kts | 77° |
| 2026-05-04 21:12 | 30.78506 | -88.34218 | 4153 ft | 259 kts | 77° |
| 2026-05-04 21:13 | 30.78870 | -88.32267 | 3784 ft | 242 kts | 90° |
| 2026-05-04 21:13 | 30.78425 | -88.30523 | 3433 ft | 219 kts | 133° |
| 2026-05-04 21:13 | 30.77146 | -88.29827 | 3115 ft | 202 kts | 182° |
| 2026-05-04 21:13 | 30.75838 | -88.29638 | 2853 ft | 193 kts | 154° |
| 2026-05-04 21:14 | 30.74700 | -88.28791 | 2539 ft | 194 kts | 153° |
| 2026-05-04 21:14 | 30.73565 | -88.28041 | 2098 ft | 179 kts | 152° |
| 2026-05-04 21:14 | 30.72544 | -88.27301 | 1512 ft | 171 kts | 148° |
| 2026-05-04 21:14 | 30.71586 | -88.26524 | 1014 ft | 164 kts | 146° |
| 2026-05-04 21:15 | 30.70659 | -88.25742 | 448 ft | 163 kts | 147° |
| 2026-05-04 21:15 | 30.69787 | -88.25021 | 224 ft | 141 kts | 147° |
| 2026-05-04 21:15 | 30.69094 | -88.24452 | 220 ft | 97 kts | 144° |
| 2026-05-04 21:15 | 30.68702 | -88.24127 | 218 ft | 43 kts | 146° |
| 2026-05-04 21:16 | 30.68579 | -88.24037 | 222 ft | 13 kts | 195° |
| 2026-05-04 21:16 | 30.68556 | -88.24111 | 223 ft | 11 kts | 278° |
| 2026-05-04 21:16 | 30.68546 | -88.24214 | 222 ft | 14 kts | 224° |
| 2026-05-04 21:16 | 30.68450 | -88.24264 | 224 ft | 16 kts | 201° |
| 2026-05-04 21:17 | 30.68407 | -88.24284 | 223 ft | 5 kts | 208° |
| 2026-05-04 21:17 | 30.68369 | -88.24313 | 224 ft | 8 kts | 216° |
| 2026-05-04 21:17 | 30.68319 | -88.24364 | 225 ft | 11 kts | 222° |
| 2026-05-04 21:17 | 30.68286 | -88.24427 | 224 ft | 6 kts | 263° |
| 2026-05-04 21:18 | 30.68293 | -88.24484 | 223 ft | 8 kts | 275° |
| 2026-05-04 21:18 | 30.68293 | -88.24495 | 223 ft | 0 kts | 269° |